sensor_id;sensor_type;location;lat;lon;timestamp;pressure;altitude;pressure_sealevel;temperature;humidity
68891;BME280;55932;48.702;8.884;2023-01-29T00:02:25;97120;;;-1.1;77
68891;BME280;55932;48.702;8.884;2023-01-29T00:04:55;97110;;;-1.1;77
68891;BME280;55932;48.702;8.884;2023-01-29T00:07:25;97120;;;-1.1;77
68891;BME280;55932;48.702;8.884;2023-01-29T00:12:15;97120;;;-1.1;77.5
68891;BME280;55932;48.702;8.884;2023-01-29T00:14:46;97120;;;-1;77
68891;BME280;55932;48.702;8.884;2023-01-29T00:17:16;97120;;;-1;77
68891;BME280;55932;48.702;8.884;2023-01-29T00:19:47;97120;;;-1;77
68891;BME280;55932;48.702;8.884;2023-01-29T00:22:17;97120;;;-1;77.5
68891;BME280;55932;48.702;8.884;2023-01-29T00:24:48;97110;;;-0.9;77
68891;BME280;55932;48.702;8.884;2023-01-29T00:27:18;97110;;;-0.9;77
68891;BME280;55932;48.702;8.884;2023-01-29T00:29:49;97110;;;-1;77
68891;BME280;55932;48.702;8.884;2023-01-29T00:32:31;97110;;;-1.1;77.5
68891;BME280;55932;48.702;8.884;2023-01-29T00:35:01;97110;;;-1.1;77.5
68891;BME280;55932;48.702;8.884;2023-01-29T00:37:31;97110;;;-1.1;77.5
68891;BME280;55932;48.702;8.884;2023-01-29T00:39:50;97110;;;-1.1;77.5
68891;BME280;55932;48.702;8.884;2023-01-29T00:42:20;97110;;;-1;77.5
68891;BME280;55932;48.702;8.884;2023-01-29T00:44:51;97110;;;-0.9;77
68891;BME280;55932;48.702;8.884;2023-01-29T00:47:21;97110;;;-1;77
68891;BME280;55932;48.702;8.884;2023-01-29T00:49:52;97100;;;-0.9;77
68891;BME280;55932;48.702;8.884;2023-01-29T00:52:22;97110;;;-1;77
68891;BME280;55932;48.702;8.884;2023-01-29T00:54:54;97110;;;-1.1;77
68891;BME280;55932;48.702;8.884;2023-01-29T00:57:24;97110;;;-1.1;77.5
68891;BME280;55932;48.702;8.884;2023-01-29T01:10:07;97120;;;-1.1;77.5
68891;BME280;55932;48.702;8.884;2023-01-29T01:12:36;97120;;;-1.1;77.5
68891;BME280;55932;48.702;8.884;2023-01-29T01:15:07;97110;;;-1.1;77
68891;BME280;55932;48.702;8.884;2023-01-29T01:17:26;97120;;;-1.1;77
68891;BME280;55932;48.702;8.884;2023-01-29T01:19:56;97110;;;-1.1;77
68891;BME280;55932;48.702;8.884;2023-01-29T01:30:00;97110;;;-1.1;77.5
68891;BME280;55932;48.702;8.884;2023-01-29T01:32:29;97100;;;-1.1;77
68891;BME280;55932;48.702;8.884;2023-01-29T01:35:00;97100;;;-1;77
68891;BME280;55932;48.702;8.884;2023-01-29T01:37:30;97110;;;-1.1;77
68891;BME280;55932;48.702;8.884;2023-01-29T01:40:03;97100;;;-1.1;77.5
68891;BME280;55932;48.702;8.884;2023-01-29T01:42:46;97110;;;-1.1;77.5
68891;BME280;55932;48.702;8.884;2023-01-29T01:45:44;97110;;;-1;77
68891;BME280;55932;48.702;8.884;2023-01-29T01:47:44;97100;;;-1;77.5
68891;BME280;55932;48.702;8.884;2023-01-29T02:02:35;97100;;;-1.1;77.5
68891;BME280;55932;48.702;8.884;2023-01-29T02:05:05;97100;;;-1;77
68891;BME280;55932;48.702;8.884;2023-01-29T02:07:38;97100;;;-1.1;77
68891;BME280;55932;48.702;8.884;2023-01-29T02:10:09;97100;;;-1;77
68891;BME280;55932;48.702;8.884;2023-01-29T02:12:36;97100;;;-1.1;77
68891;BME280;55932;48.702;8.884;2023-01-29T02:20:24;97110;;;-1;77
68891;BME280;55932;48.702;8.884;2023-01-29T02:25:35;97120;;;-1.2;77.5
68891;BME280;55932;48.702;8.884;2023-01-29T02:28:24;97110;;;-1.2;77.5
68891;BME280;55932;48.702;8.884;2023-01-29T02:30:31;97110;;;-1.2;77.5
68891;BME280;55932;48.702;8.884;2023-01-29T02:35:14;97110;;;-1.2;77.5
68891;BME280;55932;48.702;8.884;2023-01-29T02:40:17;97110;;;-1.2;77.5
68891;BME280;55932;48.702;8.884;2023-01-29T02:47:46;97110;;;-1.1;77
68891;BME280;55932;48.702;8.884;2023-01-29T02:50:14;97100;;;-1;77
68891;BME280;55932;48.702;8.884;2023-01-29T02:55:28;97110;;;-1.2;77.5
68891;BME280;55932;48.702;8.884;2023-01-29T02:57:57;97100;;;-1.2;77.5
68891;BME280;55932;48.702;8.884;2023-01-29T03:00:26;97100;;;-1.1;77.5
68891;BME280;55932;48.702;8.884;2023-01-29T03:02:48;97100;;;-1.2;77.5
68891;BME280;55932;48.702;8.884;2023-01-29T03:05:15;97100;;;-1.2;77.5
68891;BME280;55932;48.702;8.884;2023-01-29T03:15:39;97110;;;-1.1;77
68891;BME280;55932;48.702;8.884;2023-01-29T03:20:41;97110;;;-1.1;77
68891;BME280;55932;48.702;8.884;2023-01-29T03:23:11;97110;;;-1.2;77
68891;BME280;55932;48.702;8.884;2023-01-29T03:25:41;97100;;;-1.1;77
68891;BME280;55932;48.702;8.884;2023-01-29T03:28:00;97090;;;-1.2;77
68891;BME280;55932;48.702;8.884;2023-01-29T03:30:41;97090;;;-1.2;77
68891;BME280;55932;48.702;8.884;2023-01-29T03:38:12;97100;;;-1.2;77.5
68891;BME280;55932;48.702;8.884;2023-01-29T03:40:53;97100;;;-1.1;77
68891;BME280;55932;48.702;8.884;2023-01-29T03:48:05;97100;;;-1.3;77.5
68891;BME280;55932;48.702;8.884;2023-01-29T03:50:35;97100;;;-1;76.5
68891;BME280;55932;48.702;8.884;2023-01-29T03:53:08;97100;;;-1;76.5
68891;BME280;55932;48.702;8.884;2023-01-29T03:55:38;97100;;;-1.2;77
68891;BME280;55932;48.702;8.884;2023-01-29T03:58:05;97100;;;-1.1;76.5
68891;BME280;55932;48.702;8.884;2023-01-29T04:08:05;97100;;;-1.4;77.5
68891;BME280;55932;48.702;8.884;2023-01-29T04:10:35;97100;;;-1.3;77.5
68891;BME280;55932;48.702;8.884;2023-01-29T04:13:07;97100;;;-1.3;77.5
68891;BME280;55932;48.702;8.884;2023-01-29T04:15:39;97100;;;-1.3;77.5
68891;BME280;55932;48.702;8.884;2023-01-29T04:18:28;97100;;;-1.3;77
68891;BME280;55932;48.702;8.884;2023-01-29T04:30:34;97100;;;-1.4;77.5
68891;BME280;55932;48.702;8.884;2023-01-29T04:32:56;97100;;;-1.4;77.5
68891;BME280;55932;48.702;8.884;2023-01-29T04:35:30;97100;;;-1.3;77.5
68891;BME280;55932;48.702;8.884;2023-01-29T04:40:32;97110;;;-1.4;77.5
68891;BME280;55932;48.702;8.884;2023-01-29T04:43:03;97110;;;-1.4;77.5
68891;BME280;55932;48.702;8.884;2023-01-29T04:46:07;97100;;;-1.4;77.5
68891;BME280;55932;48.702;8.884;2023-01-29T04:53:20;97100;;;-1.3;77.5
68891;BME280;55932;48.702;8.884;2023-01-29T04:55:36;97090;;;-1.2;77
68891;BME280;55932;48.702;8.884;2023-01-29T04:58:11;97100;;;-1.2;77
68891;BME280;55932;48.702;8.884;2023-01-29T05:00:42;97100;;;-1.3;77
68891;BME280;55932;48.702;8.884;2023-01-29T05:03:12;97100;;;-1.4;77
68891;BME280;55932;48.702;8.884;2023-01-29T05:05:37;97100;;;-1.5;77.5
68891;BME280;55932;48.702;8.884;2023-01-29T05:08:07;97100;;;-1.4;78
68891;BME280;55932;48.702;8.884;2023-01-29T05:10:37;97100;;;-1.4;77.5
68891;BME280;55932;48.702;8.884;2023-01-29T05:13:10;97100;;;-1.4;77.5
68891;BME280;55932;48.702;8.884;2023-01-29T05:20:41;97100;;;-1.2;77
68891;BME280;55932;48.702;8.884;2023-01-29T05:25:48;97090;;;-1.3;77
68891;BME280;55932;48.702;8.884;2023-01-29T05:28:19;97100;;;-1.3;77.5
68891;BME280;55932;48.702;8.884;2023-01-29T05:30:51;97100;;;-1.3;77.5
68891;BME280;55932;48.702;8.884;2023-01-29T05:33:15;97100;;;-1.3;77.5
68891;BME280;55932;48.702;8.884;2023-01-29T05:35:44;97100;;;-1.4;77.5
68891;BME280;55932;48.702;8.884;2023-01-29T05:38:16;97100;;;-1.4;77.5
68891;BME280;55932;48.702;8.884;2023-01-29T05:40:46;97110;;;-1.4;77.5
68891;BME280;55932;48.702;8.884;2023-01-29T05:43:18;97110;;;-1.4;77.5
68891;BME280;55932;48.702;8.884;2023-01-29T05:53:27;97080;;;-1.2;76.5
68891;BME280;55932;48.702;8.884;2023-01-29T05:55:59;97080;;;-1;76
68891;BME280;55932;48.702;8.884;2023-01-29T05:58:29;97060;;;-0.8;75
68891;BME280;55932;48.702;8.884;2023-01-29T06:01:15;97060;;;-0.8;75
68891;BME280;55932;48.702;8.884;2023-01-29T06:03:32;97040;;;-0.9;75
68891;BME280;55932;48.702;8.884;2023-01-29T06:06:01;97060;;;-0.8;75
68891;BME280;55932;48.702;8.884;2023-01-29T06:08:31;97060;;;-0.8;75
68891;BME280;55932;48.702;8.884;2023-01-29T06:11:03;97060;;;-0.8;75
68891;BME280;55932;48.702;8.884;2023-01-29T06:13:33;97070;;;-0.8;75
68891;BME280;55932;48.702;8.884;2023-01-29T06:16:05;97070;;;-0.8;75
68891;BME280;55932;48.702;8.884;2023-01-29T06:18:42;97070;;;-0.7;74.5
68891;BME280;55932;48.702;8.884;2023-01-29T06:23:37;97080;;;-0.8;75
68891;BME280;55932;48.702;8.884;2023-01-29T06:28:47;97080;;;-0.9;75.5
68891;BME280;55932;48.702;8.884;2023-01-29T06:31:15;97090;;;-0.9;75.5
68891;BME280;55932;48.702;8.884;2023-01-29T06:33:45;97090;;;-0.8;75
68891;BME280;55932;48.702;8.884;2023-01-29T06:36:15;97080;;;-0.7;75
68891;BME280;55932;48.702;8.884;2023-01-29T06:38:40;97090;;;-0.8;75
68891;BME280;55932;48.702;8.884;2023-01-29T06:41:11;97100;;;-0.8;75.5
68891;BME280;55932;48.702;8.884;2023-01-29T06:43:43;97090;;;-0.8;75.5
68891;BME280;55932;48.702;8.884;2023-01-29T06:46:19;97090;;;-0.6;75
68891;BME280;55932;48.702;8.884;2023-01-29T06:48:37;97090;;;-0.6;74.5
68891;BME280;55932;48.702;8.884;2023-01-29T06:51:08;97090;;;-0.7;74.5
68891;BME280;55932;48.702;8.884;2023-01-29T06:53:38;97090;;;-0.7;74.5
68891;BME280;55932;48.702;8.884;2023-01-29T06:56:09;97090;;;-0.7;74.5
68891;BME280;55932;48.702;8.884;2023-01-29T06:58:40;97090;;;-0.7;74.5
68891;BME280;55932;48.702;8.884;2023-01-29T07:01:11;97100;;;-0.8;75
68891;BME280;55932;48.702;8.884;2023-01-29T07:03:41;97100;;;-0.9;75.5
68891;BME280;55932;48.702;8.884;2023-01-29T07:06:12;97100;;;-0.9;75.5
68891;BME280;55932;48.702;8.884;2023-01-29T07:08:44;97110;;;-0.8;75.5
68891;BME280;55932;48.702;8.884;2023-01-29T07:21:23;97090;;;-0.6;74.5
68891;BME280;55932;48.702;8.884;2023-01-29T07:23:54;97090;;;-0.6;74.5
68891;BME280;55932;48.702;8.884;2023-01-29T07:26:31;97100;;;-0.6;74.5
68891;BME280;55932;48.702;8.884;2023-01-29T07:28:56;97100;;;-0.5;74.5
68891;BME280;55932;48.702;8.884;2023-01-29T07:33:58;97100;;;-0.6;75
68891;BME280;55932;48.702;8.884;2023-01-29T07:36:29;97110;;;-0.4;75
68891;BME280;55932;48.702;8.884;2023-01-29T07:39:00;97110;;;-0.2;74.5
68891;BME280;55932;48.702;8.884;2023-01-29T07:41:37;97110;;;-0.1;74.5
68891;BME280;55932;48.702;8.884;2023-01-29T07:44:14;97120;;;0;74.5
68891;BME280;55932;48.702;8.884;2023-01-29T07:46:45;97130;;;0;74
68891;BME280;55932;48.702;8.884;2023-01-29T07:51:32;97130;;;0.1;74
68891;BME280;55932;48.702;8.884;2023-01-29T07:54:09;97120;;;0.1;74
68891;BME280;55932;48.702;8.884;2023-01-29T07:56:34;97120;;;0;74
68891;BME280;55932;48.702;8.884;2023-01-29T07:59:04;97130;;;-0.1;75
68891;BME280;55932;48.702;8.884;2023-01-29T08:09:02;97140;;;-0.7;76.5
68891;BME280;55932;48.702;8.884;2023-01-29T08:11:33;97140;;;-0.6;76.5
68891;BME280;55932;48.702;8.884;2023-01-29T08:14:03;97140;;;-0.6;76.5
68891;BME280;55932;48.702;8.884;2023-01-29T08:16:34;97140;;;-0.5;76.5
68891;BME280;55932;48.702;8.884;2023-01-29T08:19:05;97130;;;-0.5;76
68891;BME280;55932;48.702;8.884;2023-01-29T08:21:35;97140;;;-0.6;76.5
68891;BME280;55932;48.702;8.884;2023-01-29T08:26:43;97140;;;-0.7;77
68891;BME280;55932;48.702;8.884;2023-01-29T08:29:14;97140;;;-0.6;77
68891;BME280;55932;48.702;8.884;2023-01-29T08:31:51;97150;;;-0.5;77
68891;BME280;55932;48.702;8.884;2023-01-29T08:36:39;97150;;;-0.4;77
68891;BME280;55932;48.702;8.884;2023-01-29T08:39:10;97150;;;-0.3;77
68891;BME280;55932;48.702;8.884;2023-01-29T08:41:41;97150;;;-0.2;76.5
68891;BME280;55932;48.702;8.884;2023-01-29T08:44:12;97150;;;-0.2;76.5
68891;BME280;55932;48.702;8.884;2023-01-29T08:46:42;97150;;;-0.1;76.5
68891;BME280;55932;48.702;8.884;2023-01-29T08:49:13;97160;;;0;76.5
68891;BME280;55932;48.702;8.884;2023-01-29T08:51:44;97160;;;0;76.5
68891;BME280;55932;48.702;8.884;2023-01-29T09:04:23;97150;;;0;76.5
68891;BME280;55932;48.702;8.884;2023-01-29T09:06:54;97150;;;0;76.5
68891;BME280;55932;48.702;8.884;2023-01-29T09:09:25;97150;;;0;77
68891;BME280;55932;48.702;8.884;2023-01-29T09:11:49;97150;;;0.1;76.5
68891;BME280;55932;48.702;8.884;2023-01-29T09:14:20;97160;;;0.1;76.5
68891;BME280;55932;48.702;8.884;2023-01-29T09:16:51;97160;;;0.2;76.5
68891;BME280;55932;48.702;8.884;2023-01-29T09:19:21;97170;;;0.3;76.5
68891;BME280;55932;48.702;8.884;2023-01-29T09:26:54;97160;;;0.6;75.5
68891;BME280;55932;48.702;8.884;2023-01-29T09:29:27;97160;;;0.6;75.5
68891;BME280;55932;48.702;8.884;2023-01-29T09:37:03;97170;;;0.5;76
68891;BME280;55932;48.702;8.884;2023-01-29T09:39:34;97170;;;0.7;76
68891;BME280;55932;48.702;8.884;2023-01-29T09:42:07;97170;;;0.8;75.5
68891;BME280;55932;48.702;8.884;2023-01-29T09:44:41;97170;;;0.8;76
68891;BME280;55932;48.702;8.884;2023-01-29T09:47:09;97170;;;1;76
68891;BME280;55932;48.702;8.884;2023-01-29T09:49:40;97160;;;1;76
68891;BME280;55932;48.702;8.884;2023-01-29T09:52:13;97150;;;1.1;76
68891;BME280;55932;48.702;8.884;2023-01-29T09:54:45;97150;;;1.2;76
68891;BME280;55932;48.702;8.884;2023-01-29T09:57:12;97140;;;1.4;76
68891;BME280;55932;48.702;8.884;2023-01-29T10:04:40;97130;;;1.6;75.5
68891;BME280;55932;48.702;8.884;2023-01-29T10:09:42;97110;;;1.6;75.5
68891;BME280;55932;48.702;8.884;2023-01-29T10:12:12;97100;;;1.7;75.5
68891;BME280;55932;48.702;8.884;2023-01-29T10:14:46;97100;;;2.1;75
68891;BME280;55932;48.702;8.884;2023-01-29T10:17:16;97090;;;2.1;75
68891;BME280;55932;48.702;8.884;2023-01-29T10:19:44;97100;;;2;75
68891;BME280;55932;48.702;8.884;2023-01-29T10:22:16;97100;;;2.2;75.5
68891;BME280;55932;48.702;8.884;2023-01-29T10:24:51;97100;;;2.4;75.5
68891;BME280;55932;48.702;8.884;2023-01-29T10:27:20;97100;;;2.4;75
68891;BME280;55932;48.702;8.884;2023-01-29T10:29:51;97100;;;2.5;75.5
68891;BME280;55932;48.702;8.884;2023-01-29T10:32:29;97100;;;2.4;75
68891;BME280;55932;48.702;8.884;2023-01-29T10:37:38;97100;;;2.4;75
68891;BME280;55932;48.702;8.884;2023-01-29T10:42:33;97100;;;2.2;75.5
68891;BME280;55932;48.702;8.884;2023-01-29T10:47:51;97090;;;2.2;75.5
68891;BME280;55932;48.702;8.884;2023-01-29T10:50:04;97090;;;1.9;76
68891;BME280;55932;48.702;8.884;2023-01-29T10:52:32;97110;;;2;76
68891;BME280;55932;48.702;8.884;2023-01-29T10:57:38;97110;;;2.4;76
68891;BME280;55932;48.702;8.884;2023-01-29T11:05:11;97100;;;2.4;75.5
68891;BME280;55932;48.702;8.884;2023-01-29T11:07:36;97100;;;2.3;76
68891;BME280;55932;48.702;8.884;2023-01-29T11:10:07;97100;;;2.2;76
68891;BME280;55932;48.702;8.884;2023-01-29T11:15:17;97110;;;2.2;76
68891;BME280;55932;48.702;8.884;2023-01-29T11:17:31;97110;;;2.2;76
68891;BME280;55932;48.702;8.884;2023-01-29T11:20:02;97110;;;2.1;76.5
68891;BME280;55932;48.702;8.884;2023-01-29T11:22:39;97110;;;2.3;76
68891;BME280;55932;48.702;8.884;2023-01-29T11:25:15;97100;;;2.2;76.5
68891;BME280;55932;48.702;8.884;2023-01-29T11:30:13;97090;;;2.3;76
68891;BME280;55932;48.702;8.884;2023-01-29T11:35:21;97080;;;2.5;76
68891;BME280;55932;48.702;8.884;2023-01-29T11:37:45;97070;;;2.7;75.5
68891;BME280;55932;48.702;8.884;2023-01-29T11:42:38;97060;;;2.5;75.5
68891;BME280;55932;48.702;8.884;2023-01-29T11:45:40;97060;;;2.6;76
68891;BME280;55932;48.702;8.884;2023-01-29T11:47:40;97070;;;2.7;76
68891;BME280;55932;48.702;8.884;2023-01-29T11:50:16;97060;;;2.8;75.5
68891;BME280;55932;48.702;8.884;2023-01-29T11:52:48;97060;;;2.8;75.5
68891;BME280;55932;48.702;8.884;2023-01-29T11:55:27;97060;;;3.1;75.5
68891;BME280;55932;48.702;8.884;2023-01-29T12:00:29;97060;;;3.2;75.5
68891;BME280;55932;48.702;8.884;2023-01-29T12:02:45;97060;;;3.1;75.5
68891;BME280;55932;48.702;8.884;2023-01-29T12:07:40;97060;;;2.9;75.5
68891;BME280;55932;48.702;8.884;2023-01-29T12:10:41;97050;;;2.8;76
68891;BME280;55932;48.702;8.884;2023-01-29T12:12:41;97040;;;3;76
68891;BME280;55932;48.702;8.884;2023-01-29T12:22:44;97010;;;2.8;75
68891;BME280;55932;48.702;8.884;2023-01-29T12:25:23;97000;;;2.8;75.5
68891;BME280;55932;48.702;8.884;2023-01-29T12:27:47;97000;;;2.9;77
68891;BME280;55932;48.702;8.884;2023-01-29T12:30:38;96990;;;3.3;75.5
68891;BME280;55932;48.702;8.884;2023-01-29T12:35:41;96980;;;4.1;76
68891;BME280;55932;48.702;8.884;2023-01-29T12:38:31;96970;;;4.6;75.5
68891;BME280;55932;48.702;8.884;2023-01-29T12:40:33;96960;;;4.8;75
68891;BME280;55932;48.702;8.884;2023-01-29T12:45:40;96960;;;5.1;75
68891;BME280;55932;48.702;8.884;2023-01-29T12:48:05;96940;;;4.8;75
68891;BME280;55932;48.702;8.884;2023-01-29T12:50:34;96940;;;4.7;74
68891;BME280;55932;48.702;8.884;2023-01-29T12:52:59;96930;;;4.7;74
68891;BME280;55932;48.702;8.884;2023-01-29T12:55:37;96930;;;4.5;73.5
68891;BME280;55932;48.702;8.884;2023-01-29T12:58:14;96930;;;4.3;74
68891;BME280;55932;48.702;8.884;2023-01-29T13:05:40;96930;;;5.7;74
68891;BME280;55932;48.702;8.884;2023-01-29T13:08:10;96920;;;5.4;74
68891;BME280;55932;48.702;8.884;2023-01-29T13:10:40;96920;;;5.1;73.5
68891;BME280;55932;48.702;8.884;2023-01-29T13:18:11;96920;;;6.4;74
68891;BME280;55932;48.702;8.884;2023-01-29T13:20:38;96920;;;6.8;74.5
68891;BME280;55932;48.702;8.884;2023-01-29T13:25:45;96910;;;5.7;72
68891;BME280;55932;48.702;8.884;2023-01-29T13:30:45;96900;;;3.3;73.5
68891;BME280;55932;48.702;8.884;2023-01-29T13:33:18;96900;;;2.8;74
68891;BME280;55932;48.702;8.884;2023-01-29T13:38:27;96910;;;2.5;74
68891;BME280;55932;48.702;8.884;2023-01-29T13:40:47;96910;;;2.2;74
68891;BME280;55932;48.702;8.884;2023-01-29T13:45:42;96920;;;2;74
68891;BME280;55932;48.702;8.884;2023-01-29T13:50:49;96920;;;2.7;74.5
68891;BME280;55932;48.702;8.884;2023-01-29T13:53:28;96920;;;3.1;74.5
68891;BME280;55932;48.702;8.884;2023-01-29T13:55:43;96920;;;3.4;73.5
68891;BME280;55932;48.702;8.884;2023-01-29T13:58:15;96920;;;3.9;74.5
68891;BME280;55932;48.702;8.884;2023-01-29T14:00:47;96920;;;5.1;74.5
68891;BME280;55932;48.702;8.884;2023-01-29T14:03:43;96920;;;5.8;74.5
68891;BME280;55932;48.702;8.884;2023-01-29T14:08:38;96920;;;5.7;72
68891;BME280;55932;48.702;8.884;2023-01-29T14:10:42;96940;;;4.4;73
68891;BME280;55932;48.702;8.884;2023-01-29T14:15:44;96930;;;4.1;73
68891;BME280;55932;48.702;8.884;2023-01-29T14:18:15;96930;;;3.5;73.5
68891;BME280;55932;48.702;8.884;2023-01-29T14:23:20;96930;;;2.9;74
68891;BME280;55932;48.702;8.884;2023-01-29T14:25:47;96930;;;2.7;74.5
68891;BME280;55932;48.702;8.884;2023-01-29T14:28:19;96920;;;3.2;75
68891;BME280;55932;48.702;8.884;2023-01-29T14:30:48;96910;;;3.3;74
68891;BME280;55932;48.702;8.884;2023-01-29T14:33:27;96910;;;2.9;74
68891;BME280;55932;48.702;8.884;2023-01-29T14:43:22;96930;;;1.8;74.5
68891;BME280;55932;48.702;8.884;2023-01-29T14:53:43;96920;;;1.3;74.5
68891;BME280;55932;48.702;8.884;2023-01-29T14:56:03;96920;;;1.4;74
68891;BME280;55932;48.702;8.884;2023-01-29T14:58:49;96920;;;1.4;73.5
68891;BME280;55932;48.702;8.884;2023-01-29T15:04:16;96920;;;2;75
68891;BME280;55932;48.702;8.884;2023-01-29T15:13:46;96900;;;3.1;72
68891;BME280;55932;48.702;8.884;2023-01-29T15:16:16;96900;;;2.1;72.5
68891;BME280;55932;48.702;8.884;2023-01-29T15:18:44;96910;;;1.4;73.5
68891;BME280;55932;48.702;8.884;2023-01-29T15:21:16;96920;;;1.2;73.5
68891;BME280;55932;48.702;8.884;2023-01-29T15:26:10;96920;;;1.5;73
68891;BME280;55932;48.702;8.884;2023-01-29T15:28:42;96920;;;1.8;73.5
68891;BME280;55932;48.702;8.884;2023-01-29T15:31:12;96920;;;2.1;72.5
68891;BME280;55932;48.702;8.884;2023-01-29T15:33:43;96920;;;1.9;71
68891;BME280;55932;48.702;8.884;2023-01-29T15:36:28;96920;;;1.5;71
68891;BME280;55932;48.702;8.884;2023-01-29T15:41:16;96920;;;0.7;71.5
68891;BME280;55932;48.702;8.884;2023-01-29T15:43:47;96910;;;0.5;72
68891;BME280;55932;48.702;8.884;2023-01-29T15:46:23;96910;;;0.3;72
68891;BME280;55932;48.702;8.884;2023-01-29T15:48:55;96910;;;0.1;72.5
68891;BME280;55932;48.702;8.884;2023-01-29T15:54:09;96910;;;-0.1;73
68891;BME280;55932;48.702;8.884;2023-01-29T15:56:40;96900;;;-0.2;73
68891;BME280;55932;48.702;8.884;2023-01-29T16:01:20;96910;;;-0.4;73
68891;BME280;55932;48.702;8.884;2023-01-29T16:03:51;96910;;;-0.5;73
68891;BME280;55932;48.702;8.884;2023-01-29T16:06:22;96910;;;-0.5;73
68891;BME280;55932;48.702;8.884;2023-01-29T16:13:47;96920;;;-1.1;73.5
68891;BME280;55932;48.702;8.884;2023-01-29T16:16:19;96920;;;-1.2;73.5
68891;BME280;55932;48.702;8.884;2023-01-29T16:18:49;96920;;;-1.3;73.5
68891;BME280;55932;48.702;8.884;2023-01-29T16:21:22;96920;;;-1.4;74
68891;BME280;55932;48.702;8.884;2023-01-29T16:23:51;96920;;;-1.5;74
68891;BME280;55932;48.702;8.884;2023-01-29T16:26:26;96920;;;-1.6;74
68891;BME280;55932;48.702;8.884;2023-01-29T16:29:07;96920;;;-1.7;74
68891;BME280;55932;48.702;8.884;2023-01-29T16:31:30;96920;;;-1.8;74
68891;BME280;55932;48.702;8.884;2023-01-29T16:34:05;96910;;;-2;74
68891;BME280;55932;48.702;8.884;2023-01-29T16:36:31;96910;;;-2.1;74
68891;BME280;55932;48.702;8.884;2023-01-29T16:39:04;96910;;;-2.2;74.5
68891;BME280;55932;48.702;8.884;2023-01-29T16:41:40;96910;;;-2.3;74.5
68891;BME280;55932;48.702;8.884;2023-01-29T16:49:44;96910;;;-2.2;74
68891;BME280;55932;48.702;8.884;2023-01-29T16:51:37;96920;;;-2.3;74
68891;BME280;55932;48.702;8.884;2023-01-29T16:54:12;96920;;;-2.4;74
68891;BME280;55932;48.702;8.884;2023-01-29T16:56:47;96910;;;-2.5;74
68891;BME280;55932;48.702;8.884;2023-01-29T16:59:15;96920;;;-2.6;74
68891;BME280;55932;48.702;8.884;2023-01-29T17:01:33;96940;;;-2.5;74
68891;BME280;55932;48.702;8.884;2023-01-29T17:11:37;96940;;;-2.6;74
68891;BME280;55932;48.702;8.884;2023-01-29T17:14:07;96940;;;-2.6;74
68891;BME280;55932;48.702;8.884;2023-01-29T17:16:47;96940;;;-2.8;74
68891;BME280;55932;48.702;8.884;2023-01-29T17:19:27;96950;;;-2.9;74.5
68891;BME280;55932;48.702;8.884;2023-01-29T17:21:39;96940;;;-3;74.5
68891;BME280;55932;48.702;8.884;2023-01-29T17:24:17;96940;;;-3;74.5
68891;BME280;55932;48.702;8.884;2023-01-29T17:26:48;96940;;;-3;74.5
68891;BME280;55932;48.702;8.884;2023-01-29T17:29:19;96940;;;-3;74.5
68891;BME280;55932;48.702;8.884;2023-01-29T17:31:42;96940;;;-3.1;74.5
68891;BME280;55932;48.702;8.884;2023-01-29T17:41:48;96930;;;-3.4;74.5
68891;BME280;55932;48.702;8.884;2023-01-29T17:44:16;96930;;;-3.4;74.5
68891;BME280;55932;48.702;8.884;2023-01-29T17:46:48;96930;;;-3.5;74.5
68891;BME280;55932;48.702;8.884;2023-01-29T17:49:23;96920;;;-3.6;74.5
68891;BME280;55932;48.702;8.884;2023-01-29T17:51:50;96920;;;-3.6;74.5
68891;BME280;55932;48.702;8.884;2023-01-29T17:56:56;96930;;;-3.5;74.5
68891;BME280;55932;48.702;8.884;2023-01-29T17:59:29;96920;;;-3.6;74
68891;BME280;55932;48.702;8.884;2023-01-29T18:02:08;96920;;;-3.6;74.5
68891;BME280;55932;48.702;8.884;2023-01-29T18:19:35;96910;;;-3.9;75.5
68891;BME280;55932;48.702;8.884;2023-01-29T18:22:11;96910;;;-3.8;75.5
68891;BME280;55932;48.702;8.884;2023-01-29T18:27:14;96910;;;-3.7;75.5
68891;BME280;55932;48.702;8.884;2023-01-29T18:29:44;96910;;;-3.9;75.5
68891;BME280;55932;48.702;8.884;2023-01-29T18:32:15;96910;;;-3.9;75.5
68891;BME280;55932;48.702;8.884;2023-01-29T18:34:44;96910;;;-3.9;75.5
68891;BME280;55932;48.702;8.884;2023-01-29T18:37:09;96910;;;-3.8;75.5
68891;BME280;55932;48.702;8.884;2023-01-29T18:39:46;96920;;;-3.8;75
68891;BME280;55932;48.702;8.884;2023-01-29T18:42:17;96920;;;-3.9;75.5
68891;BME280;55932;48.702;8.884;2023-01-29T18:47:13;96910;;;-3.8;75
68891;BME280;55932;48.702;8.884;2023-01-29T18:52:21;96910;;;-3.8;75.5
68891;BME280;55932;48.702;8.884;2023-01-29T18:54:52;96920;;;-3.8;75.5
68891;BME280;55932;48.702;8.884;2023-01-29T18:59:45;96920;;;-4;75
68891;BME280;55932;48.702;8.884;2023-01-29T19:02:16;96910;;;-4.1;75.5
68891;BME280;55932;48.702;8.884;2023-01-29T19:04:47;96920;;;-4.1;75
68891;BME280;55932;48.702;8.884;2023-01-29T19:07:18;96920;;;-4;75
68891;BME280;55932;48.702;8.884;2023-01-29T19:09:56;96920;;;-4.1;75
68891;BME280;55932;48.702;8.884;2023-01-29T19:17:35;96910;;;-4.2;75
68891;BME280;55932;48.702;8.884;2023-01-29T19:22:30;96920;;;-4.2;75
68891;BME280;55932;48.702;8.884;2023-01-29T19:25:01;96920;;;-4.2;74.5
68891;BME280;55932;48.702;8.884;2023-01-29T19:27:30;96930;;;-4.3;74.5
68891;BME280;55932;48.702;8.884;2023-01-29T19:32:24;96930;;;-4.5;75
68891;BME280;55932;48.702;8.884;2023-01-29T19:35:01;96930;;;-4.5;75
68891;BME280;55932;48.702;8.884;2023-01-29T19:37:25;96930;;;-4.5;75.5
68891;BME280;55932;48.702;8.884;2023-01-29T19:44:51;96930;;;-4.5;75.5
68891;BME280;55932;48.702;8.884;2023-01-29T19:47:22;96930;;;-4.5;75.5
68891;BME280;55932;48.702;8.884;2023-01-29T19:49:53;96930;;;-4.5;76
68891;BME280;55932;48.702;8.884;2023-01-29T19:52:23;96930;;;-4.5;75.5
68891;BME280;55932;48.702;8.884;2023-01-29T19:55:01;96930;;;-4.5;75.5
68891;BME280;55932;48.702;8.884;2023-01-29T19:57:33;96930;;;-4.7;75.5
68891;BME280;55932;48.702;8.884;2023-01-29T20:00:04;96930;;;-4.8;75.5
68891;BME280;55932;48.702;8.884;2023-01-29T20:07:55;96930;;;-4.8;75.5
68891;BME280;55932;48.702;8.884;2023-01-29T20:10:12;96930;;;-4.7;75.5
68891;BME280;55932;48.702;8.884;2023-01-29T20:12:42;96930;;;-4.7;75.5
68891;BME280;55932;48.702;8.884;2023-01-29T20:17:36;96920;;;-4.7;75.5
68891;BME280;55932;48.702;8.884;2023-01-29T20:20:07;96920;;;-4.6;75.5
68891;BME280;55932;48.702;8.884;2023-01-29T20:22:37;96920;;;-4.6;75.5
68891;BME280;55932;48.702;8.884;2023-01-29T20:32:34;96920;;;-3.9;75.5
68891;BME280;55932;48.702;8.884;2023-01-29T20:35:05;96910;;;-3.9;75.5
68891;BME280;55932;48.702;8.884;2023-01-29T20:37:36;96910;;;-4;75.5